sensor_id;sensor_type;location;lat;lon;timestamp;pressure;altitude;pressure_sealevel;temperature;humidity
59375;BME280;45172;55.006;73.460;2022-08-30T00:02:37;100644.59;;;11.39;nan
59375;BME280;45172;55.006;73.460;2022-08-30T00:05:03;100641.91;;;11.37;nan
59375;BME280;45172;55.006;73.460;2022-08-30T00:07:32;100624.09;;;11.29;nan
59375;BME280;45172;55.006;73.460;2022-08-30T00:09:59;100642.78;;;11.36;nan
59375;BME280;45172;55.006;73.460;2022-08-30T00:12:29;100634.78;;;11.33;nan
59375;BME280;45172;55.006;73.460;2022-08-30T00:15:03;100629.84;;;11.04;nan
59375;BME280;45172;55.006;73.460;2022-08-30T00:17:30;100646.16;;;11.28;nan
59375;BME280;45172;55.006;73.460;2022-08-30T00:20:03;100649.78;;;11.33;nan
59375;BME280;45172;55.006;73.460;2022-08-30T00:22:30;100639.13;;;11.31;nan
59375;BME280;45172;55.006;73.460;2022-08-30T00:24:59;100639.19;;;11.33;nan
59375;BME280;45172;55.006;73.460;2022-08-30T00:27:28;100627.50;;;11.23;nan
59375;BME280;45172;55.006;73.460;2022-08-30T00:30:02;100639.06;;;11.27;nan
59375;BME280;45172;55.006;73.460;2022-08-30T00:32:28;100642.69;;;11.32;nan
59375;BME280;45172;55.006;73.460;2022-08-30T00:34:54;100641.81;;;11.33;nan
59375;BME280;45172;55.006;73.460;2022-08-30T00:37:26;100637.09;;;11.13;nan
59375;BME280;45172;55.006;73.460;2022-08-30T00:39:51;100644.53;;;11.34;nan
59375;BME280;45172;55.006;73.460;2022-08-30T00:42:19;100647.25;;;11.39;nan
59375;BME280;45172;55.006;73.460;2022-08-30T00:44:46;100641.16;;;11.45;nan
59375;BME280;45172;55.006;73.460;2022-08-30T00:47:12;100642.09;;;11.48;nan
59375;BME280;45172;55.006;73.460;2022-08-30T00:49:50;100638.63;;;11.54;nan
59375;BME280;45172;55.006;73.460;2022-08-30T00:52:19;100652.00;;;11.60;nan
59375;BME280;45172;55.006;73.460;2022-08-30T00:54:50;100647.69;;;11.65;nan
59375;BME280;45172;55.006;73.460;2022-08-30T00:57:17;100645.06;;;11.69;nan
59375;BME280;45172;55.006;73.460;2022-08-30T00:59:47;100644.25;;;11.73;nan
59375;BME280;45172;55.006;73.460;2022-08-30T01:02:17;100645.19;;;11.76;nan
59375;BME280;45172;55.006;73.460;2022-08-30T01:04:46;100640.75;;;11.77;nan
59375;BME280;45172;55.006;73.460;2022-08-30T01:07:13;100649.81;;;11.90;nan
59375;BME280;45172;55.006;73.460;2022-08-30T01:09:41;100655.22;;;11.98;nan
59375;BME280;45172;55.006;73.460;2022-08-30T01:12:07;100649.22;;;12.07;nan
59375;BME280;45172;55.006;73.460;2022-08-30T01:14:34;100618.06;;;11.98;nan
59375;BME280;45172;55.006;73.460;2022-08-30T01:17:01;100651.28;;;12.29;nan
59375;BME280;45172;55.006;73.460;2022-08-30T01:19:46;100642.56;;;12.43;nan
59375;BME280;45172;55.006;73.460;2022-08-30T01:24:53;100616.94;;;12.46;nan
59375;BME280;45172;55.006;73.460;2022-08-30T01:27:22;100637.63;;;12.74;nan
59375;BME280;45172;55.006;73.460;2022-08-30T01:29:50;100631.47;;;12.78;nan
59375;BME280;45172;55.006;73.460;2022-08-30T01:32:28;100649.59;;;13.17;nan
59375;BME280;45172;55.006;73.460;2022-08-30T01:34:59;100615.88;;;13.14;nan
59375;BME280;45172;55.006;73.460;2022-08-30T01:37:30;100652.63;;;13.54;nan
59375;BME280;45172;55.006;73.460;2022-08-30T01:39:57;100619.84;;;13.60;nan
59375;BME280;45172;55.006;73.460;2022-08-30T01:42:26;100660.06;;;14.03;nan
59375;BME280;45172;55.006;73.460;2022-08-30T01:44:53;100658.41;;;14.25;nan
59375;BME280;45172;55.006;73.460;2022-08-30T01:47:19;100624.69;;;14.29;nan
59375;BME280;45172;55.006;73.460;2022-08-30T01:49:46;100659.47;;;14.62;nan
59375;BME280;45172;55.006;73.460;2022-08-30T01:52:14;100628.38;;;14.69;nan
59375;BME280;45172;55.006;73.460;2022-08-30T01:54:43;100647.16;;;15.00;nan
59375;BME280;45172;55.006;73.460;2022-08-30T01:57:21;100635.63;;;15.04;nan
59375;BME280;45172;55.006;73.460;2022-08-30T01:59:48;100650.75;;;15.30;nan
59375;BME280;45172;55.006;73.460;2022-08-30T02:02:18;100616.06;;;15.30;nan
59375;BME280;45172;55.006;73.460;2022-08-30T02:04:46;100649.88;;;15.60;nan
59375;BME280;45172;55.006;73.460;2022-08-30T02:07:12;100649.84;;;15.78;nan
59375;BME280;45172;55.006;73.460;2022-08-30T02:09:38;100619.59;;;15.71;nan
59375;BME280;45172;55.006;73.460;2022-08-30T02:12:05;100632.97;;;15.94;nan
59375;BME280;45172;55.006;73.460;2022-08-30T02:14:38;100628.44;;;16.15;nan
59375;BME280;45172;55.006;73.460;2022-08-30T02:17:07;100644.38;;;16.41;nan
59375;BME280;45172;55.006;73.460;2022-08-30T02:19:38;100636.31;;;16.52;nan
59375;BME280;45172;55.006;73.460;2022-08-30T02:22:05;100641.59;;;16.66;nan
59375;BME280;45172;55.006;73.460;2022-08-30T02:24:32;100606.81;;;16.66;nan
59375;BME280;45172;55.006;73.460;2022-08-30T02:26:58;100581.84;;;16.72;nan
59375;BME280;45172;55.006;73.460;2022-08-30T02:29:25;100634.25;;;17.09;nan
59375;BME280;45172;55.006;73.460;2022-08-30T02:31:51;100628.78;;;17.23;nan
59375;BME280;45172;55.006;73.460;2022-08-30T02:34:18;100640.31;;;17.33;nan
59375;BME280;45172;55.006;73.460;2022-08-30T02:36:44;100640.22;;;17.47;nan
59375;BME280;45172;55.006;73.460;2022-08-30T02:39:17;100639.22;;;17.60;nan
59375;BME280;45172;55.006;73.460;2022-08-30T02:41:43;100636.47;;;17.68;nan
59375;BME280;45172;55.006;73.460;2022-08-30T02:44:09;100630.06;;;17.85;nan
59375;BME280;45172;55.006;73.460;2022-08-30T02:46:36;100637.06;;;17.97;nan
59375;BME280;45172;55.006;73.460;2022-08-30T02:49:07;100620.94;;;18.01;nan
59375;BME280;45172;55.006;73.460;2022-08-30T02:51:43;100610.13;;;18.14;nan
59375;BME280;45172;55.006;73.460;2022-08-30T02:54:10;100620.56;;;18.35;nan
59375;BME280;45172;55.006;73.460;2022-08-30T02:56:50;100618.72;;;18.42;nan
59375;BME280;45172;55.006;73.460;2022-08-30T02:59:17;100629.19;;;18.61;nan
59375;BME280;45172;55.006;73.460;2022-08-30T03:06:40;100621.41;;;19.08;nan
59375;BME280;45172;55.006;73.460;2022-08-30T03:09:06;100621.19;;;19.21;nan
59375;BME280;45172;55.006;73.460;2022-08-30T03:11:32;100624.53;;;19.37;nan
59375;BME280;45172;55.006;73.460;2022-08-30T03:13:59;100629.72;;;19.48;nan
59375;BME280;45172;55.006;73.460;2022-08-30T03:16:25;100623.34;;;19.53;nan
59375;BME280;45172;55.006;73.460;2022-08-30T03:18:53;100602.66;;;19.58;nan
59375;BME280;45172;55.006;73.460;2022-08-30T03:21:23;100615.66;;;19.82;nan
59375;BME280;45172;55.006;73.460;2022-08-30T03:23:56;100608.25;;;19.98;nan
59375;BME280;45172;55.006;73.460;2022-08-30T03:26:22;100615.09;;;20.15;nan
59375;BME280;45172;55.006;73.460;2022-08-30T03:28:48;100604.19;;;20.22;nan
59375;BME280;45172;55.006;73.460;2022-08-30T03:31:18;100569.41;;;20.13;nan
59375;BME280;45172;55.006;73.460;2022-08-30T03:33:44;100597.47;;;20.44;nan
59375;BME280;45172;55.006;73.460;2022-08-30T03:36:10;100598.00;;;20.60;nan
59375;BME280;45172;55.006;73.460;2022-08-30T03:38:37;100577.16;;;20.70;nan
59375;BME280;45172;55.006;73.460;2022-08-30T03:41:03;100615.75;;;21.10;nan
59375;BME280;45172;55.006;73.460;2022-08-30T03:43:34;100622.56;;;21.25;nan
59375;BME280;45172;55.006;73.460;2022-08-30T03:46:00;100607.28;;;21.25;nan
59375;BME280;45172;55.006;73.460;2022-08-30T03:48:28;100607.97;;;21.33;nan
59375;BME280;45172;55.006;73.460;2022-08-30T03:50:54;100616.84;;;21.39;nan
59375;BME280;45172;55.006;73.460;2022-08-30T03:53:22;100616.44;;;21.54;nan
59375;BME280;45172;55.006;73.460;2022-08-30T03:55:48;100623.38;;;21.63;nan
59375;BME280;45172;55.006;73.460;2022-08-30T03:58:14;100616.09;;;21.68;nan
59375;BME280;45172;55.006;73.460;2022-08-30T04:00:41;100633.59;;;21.86;nan
59375;BME280;45172;55.006;73.460;2022-08-30T04:03:07;100632.47;;;21.95;nan
59375;BME280;45172;55.006;73.460;2022-08-30T04:05:33;100626.28;;;21.92;nan
59375;BME280;45172;55.006;73.460;2022-08-30T04:08:05;100604.91;;;21.84;nan
59375;BME280;45172;55.006;73.460;2022-08-30T04:10:37;100602.91;;;21.90;nan
59375;BME280;45172;55.006;73.460;2022-08-30T04:13:04;100631.78;;;22.20;nan
59375;BME280;45172;55.006;73.460;2022-08-30T04:15:30;100625.28;;;22.27;nan
59375;BME280;45172;55.006;73.460;2022-08-30T04:18:09;100633.97;;;22.37;nan
59375;BME280;45172;55.006;73.460;2022-08-30T04:20:35;100633.72;;;22.47;nan
59375;BME280;45172;55.006;73.460;2022-08-30T04:23:07;100623.88;;;22.46;nan
59375;BME280;45172;55.006;73.460;2022-08-30T04:25:34;100620.91;;;22.55;nan
59375;BME280;45172;55.006;73.460;2022-08-30T04:28:02;100627.66;;;22.70;nan
59375;BME280;45172;55.006;73.460;2022-08-30T04:30:28;100621.25;;;22.74;nan
59375;BME280;45172;55.006;73.460;2022-08-30T04:32:54;100637.78;;;22.92;nan
59375;BME280;45172;55.006;73.460;2022-08-30T04:35:21;100625.22;;;22.91;nan
59375;BME280;45172;55.006;73.460;2022-08-30T04:37:47;100638.09;;;23.11;nan
59375;BME280;45172;55.006;73.460;2022-08-30T04:40:22;100607.78;;;23.01;nan
59375;BME280;45172;55.006;73.460;2022-08-30T04:42:48;100627.81;;;23.22;nan
59375;BME280;45172;55.006;73.460;2022-08-30T04:45:19;100614.16;;;23.27;nan
59375;BME280;45172;55.006;73.460;2022-08-30T04:47:46;100635.84;;;23.52;nan
59375;BME280;45172;55.006;73.460;2022-08-30T04:50:22;100631.13;;;23.59;nan
59375;BME280;45172;55.006;73.460;2022-08-30T04:52:48;100632.63;;;23.68;nan
59375;BME280;45172;55.006;73.460;2022-08-30T04:55:14;100633.19;;;23.78;nan
59375;BME280;45172;55.006;73.460;2022-08-30T04:57:41;100607.28;;;23.71;nan
59375;BME280;45172;55.006;73.460;2022-08-30T05:00:10;100594.44;;;23.77;nan
59375;BME280;45172;55.006;73.460;2022-08-30T05:02:39;100613.59;;;23.97;nan
59375;BME280;45172;55.006;73.460;2022-08-30T05:05:15;100612.34;;;24.07;nan
59375;BME280;45172;55.006;73.460;2022-08-30T05:07:59;100625.03;;;24.30;nan
59375;BME280;45172;55.006;73.460;2022-08-30T05:10:25;100617.38;;;24.42;nan
59375;BME280;45172;55.006;73.460;2022-08-30T05:12:59;100617.72;;;24.56;nan
59375;BME280;45172;55.006;73.460;2022-08-30T05:15:25;100624.63;;;24.65;nan
59375;BME280;45172;55.006;73.460;2022-08-30T05:17:51;100613.53;;;24.71;nan
59375;BME280;45172;55.006;73.460;2022-08-30T05:20:17;100611.59;;;24.75;nan
59375;BME280;45172;55.006;73.460;2022-08-30T05:22:54;100615.84;;;24.82;nan
59375;BME280;45172;55.006;73.460;2022-08-30T05:25:26;100622.69;;;24.93;nan
59375;BME280;45172;55.006;73.460;2022-08-30T05:27:55;100590.41;;;24.86;nan
59375;BME280;45172;55.006;73.460;2022-08-30T05:30:22;100610.06;;;25.14;nan
59375;BME280;45172;55.006;73.460;2022-08-30T05:32:48;100609.44;;;25.29;nan
59375;BME280;45172;55.006;73.460;2022-08-30T05:35:16;100601.72;;;25.41;nan
59375;BME280;45172;55.006;73.460;2022-08-30T05:37:43;100609.41;;;25.52;nan
59375;BME280;45172;55.006;73.460;2022-08-30T05:40:19;100581.47;;;25.50;nan
59375;BME280;45172;55.006;73.460;2022-08-30T05:42:46;100602.47;;;25.67;nan
59375;BME280;45172;55.006;73.460;2022-08-30T05:45:20;100596.63;;;25.76;nan
59375;BME280;45172;55.006;73.460;2022-08-30T05:47:52;100604.28;;;25.87;nan
59375;BME280;45172;55.006;73.460;2022-08-30T05:50:18;100592.16;;;25.96;nan
59375;BME280;45172;55.006;73.460;2022-08-30T05:52:44;100598.69;;;26.11;nan
59375;BME280;45172;55.006;73.460;2022-08-30T05:55:11;100597.28;;;26.23;nan
59375;BME280;45172;55.006;73.460;2022-08-30T05:57:39;100585.34;;;26.27;nan
59375;BME280;45172;55.006;73.460;2022-08-30T06:00:10;100569.06;;;26.27;nan
59375;BME280;45172;55.006;73.460;2022-08-30T06:02:37;100581.69;;;26.47;nan
59375;BME280;45172;55.006;73.460;2022-08-30T06:05:13;100587.97;;;26.67;nan
59375;BME280;45172;55.006;73.460;2022-08-30T06:07:42;100594.81;;;26.76;nan
59375;BME280;45172;55.006;73.460;2022-08-30T06:10:08;100582.53;;;26.86;nan
59375;BME280;45172;55.006;73.460;2022-08-30T06:12:39;100583.94;;;26.95;nan
59375;BME280;45172;55.006;73.460;2022-08-30T06:15:05;100579.31;;;26.97;nan
59375;BME280;45172;55.006;73.460;2022-08-30T06:17:31;100586.84;;;27.10;nan
59375;BME280;45172;55.006;73.460;2022-08-30T06:20:09;100581.03;;;27.17;nan
59375;BME280;45172;55.006;73.460;2022-08-30T06:22:35;100544.69;;;27.01;nan
59375;BME280;45172;55.006;73.460;2022-08-30T06:25:03;100581.44;;;27.27;nan
59375;BME280;45172;55.006;73.460;2022-08-30T06:27:29;100581.13;;;27.33;nan
59375;BME280;45172;55.006;73.460;2022-08-30T06:29:56;100575.94;;;27.46;nan
59375;BME280;45172;55.006;73.460;2022-08-30T06:32:22;100572.97;;;27.51;nan
59375;BME280;45172;55.006;73.460;2022-08-30T06:34:58;100572.38;;;27.64;nan
59375;BME280;45172;55.006;73.460;2022-08-30T06:37:24;100573.81;;;27.71;nan
59375;BME280;45172;55.006;73.460;2022-08-30T06:39:50;100569.47;;;27.84;nan
59375;BME280;45172;55.006;73.460;2022-08-30T06:42:16;100544.97;;;27.84;nan
59375;BME280;45172;55.006;73.460;2022-08-30T06:44:42;100560.75;;;28.11;nan
59375;BME280;45172;55.006;73.460;2022-08-30T06:47:09;100531.91;;;28.07;nan
59375;BME280;45172;55.006;73.460;2022-08-30T06:49:35;100564.06;;;28.34;nan
59375;BME280;45172;55.006;73.460;2022-08-30T06:52:05;100544.31;;;28.30;nan
59375;BME280;45172;55.006;73.460;2022-08-30T06:54:31;100557.75;;;28.50;nan
59375;BME280;45172;55.006;73.460;2022-08-30T06:57:03;100525.69;;;28.39;nan
59375;BME280;45172;55.006;73.460;2022-08-30T06:59:29;100541.06;;;28.56;nan
59375;BME280;45172;55.006;73.460;2022-08-30T07:01:58;100555.75;;;28.69;nan
59375;BME280;45172;55.006;73.460;2022-08-30T07:04:24;100544.41;;;28.77;nan
59375;BME280;45172;55.006;73.460;2022-08-30T07:06:50;100546.97;;;28.96;nan
59375;BME280;45172;55.006;73.460;2022-08-30T07:09:27;100533.31;;;29.12;nan
59375;BME280;45172;55.006;73.460;2022-08-30T07:11:53;100521.19;;;29.33;nan
59375;BME280;45172;55.006;73.460;2022-08-30T07:14:20;100537.72;;;29.46;nan
59375;BME280;45172;55.006;73.460;2022-08-30T07:16:49;100514.50;;;29.22;nan
59375;BME280;45172;55.006;73.460;2022-08-30T07:19:15;100526.78;;;29.46;nan
59375;BME280;45172;55.006;73.460;2022-08-30T07:21:42;100540.19;;;29.65;nan
59375;BME280;45172;55.006;73.460;2022-08-30T07:24:19;100534.16;;;29.74;nan
59375;BME280;45172;55.006;73.460;2022-08-30T07:26:48;100534.22;;;29.73;nan
59375;BME280;45172;55.006;73.460;2022-08-30T07:29:16;100533.00;;;29.78;nan
59375;BME280;45172;55.006;73.460;2022-08-30T07:31:44;100528.50;;;29.77;nan
59375;BME280;45172;55.006;73.460;2022-08-30T07:34:10;100518.72;;;29.59;nan
59375;BME280;45172;55.006;73.460;2022-08-30T07:36:37;100518.31;;;29.50;nan
59375;BME280;45172;55.006;73.460;2022-08-30T07:39:04;100524.94;;;29.61;nan
59375;BME280;45172;55.006;73.460;2022-08-30T07:41:41;100530.13;;;29.80;nan
59375;BME280;45172;55.006;73.460;2022-08-30T07:44:09;100517.38;;;29.66;nan
59375;BME280;45172;55.006;73.460;2022-08-30T07:46:37;100523.41;;;29.57;nan
59375;BME280;45172;55.006;73.460;2022-08-30T07:49:09;100528.09;;;29.55;nan
59375;BME280;45172;55.006;73.460;2022-08-30T07:51:36;100517.28;;;29.67;nan
59375;BME280;45172;55.006;73.460;2022-08-30T07:54:13;100524.19;;;29.73;nan
59375;BME280;45172;55.006;73.460;2022-08-30T07:56:40;100506.84;;;29.89;nan
59375;BME280;45172;55.006;73.460;2022-08-30T07:59:06;100512.59;;;29.84;nan
59375;BME280;45172;55.006;73.460;2022-08-30T08:01:32;100492.41;;;29.58;nan
59375;BME280;45172;55.006;73.460;2022-08-30T08:03:58;100512.00;;;29.64;nan
59375;BME280;45172;55.006;73.460;2022-08-30T08:06:25;100514.34;;;29.25;nan
59375;BME280;45172;55.006;73.460;2022-08-30T08:08:52;100486.81;;;28.83;nan
59375;BME280;45172;55.006;73.460;2022-08-30T08:11:23;100514.25;;;28.64;nan
59375;BME280;45172;55.006;73.460;2022-08-30T08:13:51;100496.81;;;28.19;nan
59375;BME280;45172;55.006;73.460;2022-08-30T08:16:17;100488.91;;;28.14;nan
59375;BME280;45172;55.006;73.460;2022-08-30T08:18:44;100502.31;;;28.51;nan
59375;BME280;45172;55.006;73.460;2022-08-30T08:21:15;100478.47;;;28.70;nan
59375;BME280;45172;55.006;73.460;2022-08-30T08:23:41;100516.06;;;29.12;nan
59375;BME280;45172;55.006;73.460;2022-08-30T08:26:08;100496.31;;;29.23;nan
59375;BME280;45172;55.006;73.460;2022-08-30T08:28:34;100487.19;;;29.38;nan
59375;BME280;45172;55.006;73.460;2022-08-30T08:31:00;100494.94;;;29.46;nan
59375;BME280;45172;55.006;73.460;2022-08-30T08:33:26;100494.66;;;29.51;nan
59375;BME280;45172;55.006;73.460;2022-08-30T08:35:52;100482.56;;;29.55;nan
59375;BME280;45172;55.006;73.460;2022-08-30T08:38:18;100480.44;;;29.75;nan
59375;BME280;45172;55.006;73.460;2022-08-30T08:43:22;100491.06;;;29.94;nan
59375;BME280;45172;55.006;73.460;2022-08-30T08:46:00;100475.16;;;30.15;nan
59375;BME280;45172;55.006;73.460;2022-08-30T08:51:09;100460.16;;;30.50;nan
59375;BME280;45172;55.006;73.460;2022-08-30T08:56:47;100457.28;;;30.94;nan
59375;BME280;45172;55.006;73.460;2022-08-30T08:59:14;100456.63;;;30.90;nan
59375;BME280;45172;55.006;73.460;2022-08-30T09:01:41;100457.84;;;30.71;nan
59375;BME280;45172;55.006;73.460;2022-08-30T09:04:12;100440.94;;;30.24;nan
59375;BME280;45172;55.006;73.460;2022-08-30T09:07:21;100469.22;;;29.94;nan
59375;BME280;45172;55.006;73.460;2022-08-30T09:09:49;100473.63;;;29.67;nan
59375;BME280;45172;55.006;73.460;2022-08-30T09:12:15;100476.97;;;29.42;nan
59375;BME280;45172;55.006;73.460;2022-08-30T09:14:47;100461.34;;;29.30;nan
59375;BME280;45172;55.006;73.460;2022-08-30T09:17:17;100462.16;;;29.32;nan
59375;BME280;45172;55.006;73.460;2022-08-30T09:22:38;100475.66;;;28.88;nan
59375;BME280;45172;55.006;73.460;2022-08-30T09:25:26;100472.28;;;28.83;nan
59375;BME280;45172;55.006;73.460;2022-08-30T09:27:53;100468.09;;;28.77;nan
59375;BME280;45172;55.006;73.460;2022-08-30T09:30:32;100459.63;;;28.82;nan
59375;BME280;45172;55.006;73.460;2022-08-30T09:33:03;100462.91;;;28.73;nan
59375;BME280;45172;55.006;73.460;2022-08-30T09:35:34;100462.34;;;28.51;nan
59375;BME280;45172;55.006;73.460;2022-08-30T09:38:11;100472.53;;;28.32;nan
59375;BME280;45172;55.006;73.460;2022-08-30T09:40:53;100468.97;;;28.13;nan
59375;BME280;45172;55.006;73.460;2022-08-30T09:43:26;100456.22;;;27.82;nan
59375;BME280;45172;55.006;73.460;2022-08-30T09:48:40;100458.91;;;27.48;nan
59375;BME280;45172;55.006;73.460;2022-08-30T09:56:29;100466.66;;;27.38;nan
59375;BME280;45172;55.006;73.460;2022-08-30T10:02:05;100461.38;;;27.53;nan
59375;BME280;45172;55.006;73.460;2022-08-30T10:04:47;100446.53;;;27.42;nan
59375;BME280;45172;55.006;73.460;2022-08-30T10:10:06;100464.59;;;27.43;nan
59375;BME280;45172;55.006;73.460;2022-08-30T10:21:22;100461.81;;;27.10;nan
59375;BME280;45172;55.006;73.460;2022-08-30T10:24:01;100457.34;;;27.08;nan
59375;BME280;45172;55.006;73.460;2022-08-30T10:26:41;100447.00;;;27.15;nan
59375;BME280;45172;55.006;73.460;2022-08-30T10:29:35;100449.97;;;27.11;nan
59375;BME280;45172;55.006;73.460;2022-08-30T10:35:08;100444.69;;;27.25;nan
59375;BME280;45172;55.006;73.460;2022-08-30T10:37:39;100430.78;;;27.31;nan
59375;BME280;45172;55.006;73.460;2022-08-30T10:40:32;100438.97;;;27.47;nan
59375;BME280;45172;55.006;73.460;2022-08-30T10:45:54;100437.75;;;27.71;nan
59375;BME280;45172;55.006;73.460;2022-08-30T10:48:30;100438.28;;;27.78;nan
59375;BME280;45172;55.006;73.460;2022-08-30T10:51:03;100433.41;;;27.84;nan
59375;BME280;45172;55.006;73.460;2022-08-30T10:53:48;100407.50;;;27.77;nan
59375;BME280;45172;55.006;73.460;2022-08-30T10:56:19;100386.78;;;27.74;nan
59375;BME280;45172;55.006;73.460;2022-08-30T10:58:49;100429.00;;;27.98;nan
59375;BME280;45172;55.006;73.460;2022-08-30T11:04:23;100395.94;;;27.56;nan
59375;BME280;45172;55.006;73.460;2022-08-30T11:12:23;100444.53;;;27.46;nan
59375;BME280;45172;55.006;73.460;2022-08-30T11:14:54;100449.56;;;27.36;nan
59375;BME280;45172;55.006;73.460;2022-08-30T11:17:35;100418.88;;;26.99;nan
59375;BME280;45172;55.006;73.460;2022-08-30T11:20:22;100419.59;;;26.85;nan
59375;BME280;45172;55.006;73.460;2022-08-30T11:23:26;100450.00;;;26.93;nan
59375;BME280;45172;55.006;73.460;2022-08-30T11:31:38;100443.75;;;26.72;nan
59375;BME280;45172;55.006;73.460;2022-08-30T11:34:05;100436.56;;;26.71;nan
59375;BME280;45172;55.006;73.460;2022-08-30T11:42:28;100437.75;;;26.47;nan
59375;BME280;45172;55.006;73.460;2022-08-30T11:55:45;100422.19;;;26.51;nan
59375;BME280;45172;55.006;73.460;2022-08-30T11:58:17;100420.97;;;26.57;nan
59375;BME280;45172;55.006;73.460;2022-08-30T12:03:58;100427.06;;;26.62;nan
59375;BME280;45172;55.006;73.460;2022-08-30T12:06:55;100428.34;;;26.55;nan
59375;BME280;45172;55.006;73.460;2022-08-30T12:12:06;100423.28;;;26.64;nan
59375;BME280;45172;55.006;73.460;2022-08-30T12:14:45;100425.53;;;26.56;nan
59375;BME280;45172;55.006;73.460;2022-08-30T12:17:25;100429.94;;;26.59;nan
59375;BME280;45172;55.006;73.460;2022-08-30T12:20:27;100414.41;;;26.43;nan
59375;BME280;45172;55.006;73.460;2022-08-30T12:22:53;100435.06;;;26.28;nan
59375;BME280;45172;55.006;73.460;2022-08-30T12:25:30;100431.88;;;26.37;nan
59375;BME280;45172;55.006;73.460;2022-08-30T12:28:15;100427.56;;;26.33;nan
59375;BME280;45172;55.006;73.460;2022-08-30T12:30:51;100422.53;;;26.25;nan
59375;BME280;45172;55.006;73.460;2022-08-30T12:33:31;100430.06;;;26.19;nan
59375;BME280;45172;55.006;73.460;2022-08-30T12:36:02;100424.09;;;26.10;nan
59375;BME280;45172;55.006;73.460;2022-08-30T12:38:33;100390.06;;;25.84;nan
59375;BME280;45172;55.006;73.460;2022-08-30T12:41:00;100433.19;;;26.09;nan
59375;BME280;45172;55.006;73.460;2022-08-30T12:46:01;100416.78;;;25.74;nan
59375;BME280;45172;55.006;73.460;2022-08-30T12:48:34;100419.03;;;25.64;nan
59375;BME280;45172;55.006;73.460;2022-08-30T12:51:02;100406.66;;;25.38;nan
59375;BME280;45172;55.006;73.460;2022-08-30T12:56:01;100424.03;;;25.13;nan
59375;BME280;45172;55.006;73.460;2022-08-30T12:58:49;100440.97;;;24.97;nan
59375;BME280;45172;55.006;73.460;2022-08-30T13:01:26;100431.81;;;24.77;nan
59375;BME280;45172;55.006;73.460;2022-08-30T13:06:42;100429.19;;;24.54;nan
59375;BME280;45172;55.006;73.460;2022-08-30T13:09:26;100442.34;;;24.63;nan
59375;BME280;45172;55.006;73.460;2022-08-30T13:12:07;100414.66;;;24.56;nan
59375;BME280;45172;55.006;73.460;2022-08-30T13:14:42;100425.34;;;24.59;nan
59375;BME280;45172;55.006;73.460;2022-08-30T13:19:40;100445.91;;;24.65;nan
59375;BME280;45172;55.006;73.460;2022-08-30T13:22:30;100427.63;;;24.48;nan
59375;BME280;45172;55.006;73.460;2022-08-30T13:24:57;100407.38;;;24.36;nan
59375;BME280;45172;55.006;73.460;2022-08-30T13:27:24;100440.84;;;24.56;nan
59375;BME280;45172;55.006;73.460;2022-08-30T13:30:04;100407.56;;;24.31;nan
59375;BME280;45172;55.006;73.460;2022-08-30T13:32:31;100450.31;;;24.45;nan
59375;BME280;45172;55.006;73.460;2022-08-30T13:35:08;100430.03;;;24.33;nan
59375;BME280;45172;55.006;73.460;2022-08-30T13:37:43;100432.16;;;24.25;nan
59375;BME280;45172;55.006;73.460;2022-08-30T13:40:11;100440.72;;;24.14;nan
59375;BME280;45172;55.006;73.460;2022-08-30T13:42:38;100434.88;;;24.01;nan
59375;BME280;45172;55.006;73.460;2022-08-30T13:45:08;100401.97;;;23.66;nan
59375;BME280;45172;55.006;73.460;2022-08-30T13:47:46;100437.06;;;23.67;nan
59375;BME280;45172;55.006;73.460;2022-08-30T13:50:18;100414.81;;;23.35;nan
59375;BME280;45172;55.006;73.460;2022-08-30T13:52:45;100417.97;;;23.21;nan
59375;BME280;45172;55.006;73.460;2022-08-30T13:55:11;100436.13;;;23.18;nan
59375;BME280;45172;55.006;73.460;2022-08-30T13:57:40;100441.94;;;23.07;nan
59375;BME280;45172;55.006;73.460;2022-08-30T14:00:11;100422.16;;;22.79;nan
59375;BME280;45172;55.006;73.460;2022-08-30T14:02:45;100447.66;;;22.70;nan
59375;BME280;45172;55.006;73.460;2022-08-30T14:05:12;100410.94;;;22.36;nan
59375;BME280;45172;55.006;73.460;2022-08-30T14:07:42;100444.09;;;22.40;nan
59375;BME280;45172;55.006;73.460;2022-08-30T14:10:09;100444.38;;;22.32;nan
59375;BME280;45172;55.006;73.460;2022-08-30T14:12:45;100455.53;;;22.20;nan
59375;BME280;45172;55.006;73.460;2022-08-30T14:15:11;100458.63;;;22.07;nan
59375;BME280;45172;55.006;73.460;2022-08-30T14:17:37;100435.00;;;21.85;nan
59375;BME280;45172;55.006;73.460;2022-08-30T14:20:04;100443.19;;;21.82;nan
59375;BME280;45172;55.006;73.460;2022-08-30T14:22:30;100452.47;;;21.72;nan
59375;BME280;45172;55.006;73.460;2022-08-30T14:24:56;100485.75;;;21.71;nan
59375;BME280;45172;55.006;73.460;2022-08-30T14:27:22;100477.03;;;21.59;nan
59375;BME280;45172;55.006;73.460;2022-08-30T14:29:58;100444.91;;;21.20;nan
59375;BME280;45172;55.006;73.460;2022-08-30T14:32:25;100456.72;;;21.14;nan
59375;BME280;45172;55.006;73.460;2022-08-30T14:34:51;100472.88;;;21.14;nan
59375;BME280;45172;55.006;73.460;2022-08-30T14:37:17;100475.88;;;21.03;nan
59375;BME280;45172;55.006;73.460;2022-08-30T14:39:43;100491.34;;;20.95;nan
59375;BME280;45172;55.006;73.460;2022-08-30T14:42:19;100481.22;;;20.67;nan
59375;BME280;45172;55.006;73.460;2022-08-30T14:44:45;100455.03;;;20.36;nan
59375;BME280;45172;55.006;73.460;2022-08-30T14:47:22;100481.06;;;20.35;nan
59375;BME280;45172;55.006;73.460;2022-08-30T14:49:48;100435.38;;;19.94;nan
59375;BME280;45172;55.006;73.460;2022-08-30T14:52:14;100439.19;;;19.82;nan